Time;durP1;ratioP1;P1;durP2;ratioP2;P2;SDS_P1;SDS_P2;PMS_P1;PMS_P2;Temp;Humidity;BMP_temperature;BMP_pressure;BME280_temperature;BME280_humidity;BME280_pressure;Samples;Min_cycle;Max_cycle;Signal;HPM_P1;HPM_P2
2022/02/12 00:01:15;;;;;;;24.12;14.47;;;;;;;2.33;90.01;99492.77;1699225;84;20966;-72
2022/02/12 00:03:41;;;;;;;28.85;14.40;;;;;;;2.32;89.85;99498.74;1699338;84;21021;-71
2022/02/12 00:06:13;;;;;;;26.65;15.03;;;;;;;2.28;89.70;99501.73;1699492;84;21178;-73
2022/02/12 00:08:39;;;;;;;29.15;15.32;;;;;;;2.26;89.72;99500.64;1699386;84;21012;-73
2022/02/12 00:11:06;;;;;;;27.80;15.45;;;;;;;2.24;89.72;99499.25;1699099;84;20937;-73
2022/02/12 00:13:36;;;;;;;22.50;13.28;;;;;;;2.20;89.64;99496.27;1699633;84;21033;-74
2022/02/12 00:16:08;;;;;;;26.00;14.35;;;;;;;2.17;89.84;99494.05;1699030;84;20982;-73
2022/02/12 00:18:36;;;;;;;25.62;14.85;;;;;;;2.18;89.85;99491.63;1707864;84;21409;-73
2022/02/12 00:21:03;;;;;;;28.65;15.75;;;;;;;2.18;89.89;99487.55;1708230;84;21004;-70
2022/02/12 00:23:30;;;;;;;31.70;17.62;;;;;;;2.14;89.57;99491.34;1708364;83;21035;-73
2022/02/12 00:26:02;;;;;;;36.48;18.57;;;;;;;2.05;89.49;99477.95;1708228;84;20869;-73
2022/02/12 00:28:29;;;;;;;32.75;18.67;;;;;;;2.02;89.54;99481.20;1708377;84;20991;-71
2022/02/12 00:30:57;;;;;;;27.87;16.65;;;;;;;1.98;89.48;99478.75;1708326;84;21058;-73
2022/02/12 00:33:23;;;;;;;28.95;16.73;;;;;;;1.93;89.50;99480.35;1708268;84;21000;-73
2022/02/12 00:35:50;;;;;;;28.95;16.12;;;;;;;1.91;89.63;99471.64;1708281;84;21019;-73
2022/02/12 00:38:20;;;;;;;24.85;14.87;;;;;;;1.90;89.59;99456.95;1708296;84;20991;-73
2022/02/12 00:40:47;;;;;;;26.68;16.27;;;;;;;1.88;89.62;99453.14;1708467;84;21019;-72
2022/02/12 00:43:13;;;;;;;28.57;16.05;;;;;;;1.89;89.67;99449.89;1708735;84;22063;-72
2022/02/12 00:45:40;;;;;;;28.65;16.67;;;;;;;1.88;89.69;99453.14;1710257;83;21095;-73
2022/02/12 00:48:06;;;;;;;31.80;17.35;;;;;;;1.87;89.71;99451.52;1710852;84;20968;-74
2022/02/12 00:50:35;;;;;;;28.55;16.67;;;;;;;1.87;89.77;99437.93;1710824;84;21488;-72
2022/02/12 00:53:01;;;;;;;32.85;17.98;;;;;;;1.85;89.73;99435.19;1710913;84;21010;-74
2022/02/12 00:55:28;;;;;;;31.68;17.92;;;;;;;1.84;89.80;99421.33;1710795;84;21039;-73
2022/02/12 00:57:55;;;;;;;26.97;18.12;;;;;;;1.83;89.88;99417.79;1710760;84;20964;-73
2022/02/12 01:00:21;;;;;;;28.32;17.50;;;;;;;1.84;89.82;99419.97;1711155;83;21157;-73
2022/02/12 01:02:48;;;;;;;35.55;18.40;;;;;;;1.82;89.73;99431.11;1710789;84;20908;-72
2022/02/12 01:05:15;;;;;;;31.95;18.12;;;;;;;1.78;89.62;99426.73;1710725;84;21408;-73
2022/02/12 01:07:43;;;;;;;32.45;16.42;;;;;;;1.75;89.61;99427.27;1710884;84;21513;-73
2022/02/12 01:10:10;;;;;;;26.52;15.78;;;;;;;1.69;89.64;99420.98;1710963;83;21010;-73
2022/02/12 01:12:38;;;;;;;24.02;14.45;;;;;;;1.68;89.91;99426.68;1710860;84;21059;-72
2022/02/12 01:15:05;;;;;;;23.87;14.87;;;;;;;1.68;90.02;99423.43;1711417;83;21448;-73
2022/02/12 01:17:35;;;;;;;22.62;13.50;;;;;;;1.68;90.12;99428.04;1710779;84;20911;-73
2022/02/12 01:20:01;;;;;;;22.30;14.45;;;;;;;1.69;90.17;99424.23;1711210;83;21499;-73
2022/02/12 01:22:29;;;;;;;20.30;13.08;;;;;;;1.68;90.11;99422.07;1710872;82;21050;-73
2022/02/12 01:25:03;;;;;;;18.85;12.53;;;;;;;1.69;90.07;99413.36;1711146;83;21540;-73
2022/02/12 01:27:30;;;;;;;21.15;13.05;;;;;;;1.69;90.21;99421.52;1682405;83;21055;-72
2022/02/12 01:29:58;;;;;;;23.05;13.43;;;;;;;1.72;90.33;99417.47;1710974;83;20963;-72
2022/02/12 01:32:26;;;;;;;17.85;12.30;;;;;;;1.73;90.40;99416.38;1710859;83;21506;-70
2022/02/12 01:34:54;;;;;;;16.73;11.18;;;;;;;1.74;90.41;99413.39;1711090;83;20987;-74
2022/02/12 01:37:21;;;;;;;21.65;12.33;;;;;;;1.76;90.56;99414.48;1710872;84;21479;-73
2022/02/12 01:39:48;;;;;;;17.40;12.15;;;;;;;1.76;90.51;99413.13;1710979;83;21520;-74
2022/02/12 01:42:18;;;;;;;19.23;12.65;;;;;;;1.74;90.48;99405.80;1710413;84;21493;-72
2022/02/12 01:44:46;;;;;;;16.73;11.93;;;;;;;1.69;90.35;99396.53;1711981;83;21078;-73
2022/02/12 01:47:15;;;;;;;16.77;11.78;;;;;;;1.69;90.36;99407.93;1714377;83;20939;-74
2022/02/12 01:49:47;;;;;;;18.45;11.95;;;;;;;1.68;90.36;99403.05;1714139;83;20907;-74
2022/02/12 01:52:15;;;;;;;17.35;11.45;;;;;;;1.68;90.34;99405.77;1708053;83;21521;-74
2022/02/12 01:54:42;;;;;;;21.25;13.43;;;;;;;1.70;90.35;99396.83;1685627;85;21047;-73
2022/02/12 01:57:09;;;;;;;18.62;12.63;;;;;;;1.69;90.37;99403.32;1686037;85;21558;-71
2022/02/12 01:59:36;;;;;;;16.85;12.13;;;;;;;1.70;90.47;99398.19;1685661;85;21008;-74
2022/02/12 02:02:04;;;;;;;20.62;12.55;;;;;;;1.71;90.59;99398.98;1685588;85;21014;-73
2022/02/12 02:04:33;;;;;;;21.97;13.85;;;;;;;1.70;90.52;99396.00;1685834;85;20947;-74
2022/02/12 02:06:59;;;;;;;19.23;12.50;;;;;;;1.69;90.51;99399.78;1685504;85;21046;-74
2022/02/12 02:09:30;;;;;;;23.38;13.10;;;;;;;1.68;90.61;99396.27;1686111;85;21756;-72
2022/02/12 02:12:00;;;;;;;24.85;14.28;;;;;;;1.68;90.58;99400.87;1685548;85;21000;-72
2022/02/12 02:14:38;;;;;;;24.12;15.40;;;;;;;1.66;90.46;99401.67;1684325;85;20975;-73
2022/02/12 02:17:08;;;;;;;21.20;14.23;;;;;;;1.67;90.67;99405.48;1686133;85;20895;-73
2022/02/12 02:19:37;;;;;;;22.13;15.08;;;;;;;1.66;90.65;99407.93;1685906;84;20980;-72
2022/02/12 02:22:04;;;;;;;20.27;13.28;;;;;;;1.64;90.71;99407.93;1685492;85;21152;-72
2022/02/12 02:24:32;;;;;;;23.18;13.70;;;;;;;1.62;90.87;99413.59;1685534;85;21057;-67
2022/02/12 02:27:18;;;;;;;20.40;13.32;;;;;;;1.62;91.02;99414.95;1685512;85;21487;-73
2022/02/12 02:29:43;;;;;;;22.32;14.75;;;;;;;1.63;91.14;99413.06;1684715;83;21046;-73
2022/02/12 02:32:11;;;;;;;22.00;14.40;;;;;;;1.62;91.13;99408.72;1685530;85;21046;-73
2022/02/12 02:34:54;;;;;;;26.40;15.68;;;;;;;1.61;91.16;99418.77;1685982;85;22334;-74
2022/02/12 02:37:24;;;;;;;26.57;16.75;;;;;;;1.58;90.94;99431.52;1684879;85;20947;-72
2022/02/12 02:39:51;;;;;;;27.58;16.70;;;;;;;1.49;90.71;99439.86;1685661;85;21146;-73
2022/02/12 02:42:19;;;;;;;26.73;15.85;;;;;;;1.34;90.66;99435.97;1685635;85;21582;-69
2022/02/12 02:44:48;;;;;;;19.92;13.03;;;;;;;1.26;91.03;99435.10;1685674;84;21059;-74
2022/02/12 02:47:40;;;;;;;20.43;12.18;;;;;;;1.26;91.43;99437.28;1685519;85;21548;-74
2022/02/12 02:55:59;;;;;;;16.10;9.45;;;;;;;1.27;91.79;99438.08;1684969;85;21550;-72
2022/02/12 02:58:08;;;;;;;12.78;7.78;;;;;;;1.25;91.79;99470.09;1665501;85;20940;-71
2022/02/12 03:00:35;;;;;;;11.75;8.58;;;;;;;1.18;91.84;99468.95;1685787;85;20978;-72
2022/02/12 03:03:08;;;;;;;13.05;8.33;;;;;;;1.12;92.10;99474.07;1661757;85;21055;-73
2022/02/12 03:05:35;;;;;;;9.48;7.20;;;;;;;1.09;92.22;99483.00;1685340;85;20977;-73
2022/02/12 03:08:05;;;;;;;12.37;6.25;;;;;;;1.09;92.27;99498.48;1685348;85;21038;-73
2022/02/12 03:10:31;;;;;;;7.47;5.85;;;;;;;1.00;92.20;99508.16;1685509;85;21006;-73
2022/02/12 03:13:01;;;;;;;8.38;5.62;;;;;;;0.94;92.43;99514.06;1685225;85;21196;-71
2022/02/12 03:15:32;;;;;;;8.20;5.40;;;;;;;0.93;92.71;99515.97;1685325;85;21211;-70
2022/02/12 03:17:59;;;;;;;7.90;6.03;;;;;;;0.87;93.62;99508.84;1685458;85;20966;-72
2022/02/12 03:20:25;;;;;;;6.95;4.75;;;;;;;0.79;94.73;99525.58;1685557;85;21536;-73
2022/02/12 03:22:52;;;;;;;4.33;2.87;;;;;;;0.76;95.57;99524.73;1685713;85;21023;-72
2022/02/12 03:25:18;;;;;;;3.50;2.52;;;;;;;0.71;96.06;99534.47;1661961;85;21054;-74
2022/02/12 03:27:46;;;;;;;5.00;2.90;;;;;;;0.66;96.45;99540.36;1685467;85;20960;-74
2022/02/12 03:30:13;;;;;;;2.72;1.75;;;;;;;0.63;96.83;99556.63;1661390;85;21003;-72
2022/02/12 03:32:40;;;;;;;2.22;1.70;;;;;;;0.58;97.95;99567.41;1685455;85;21042;-71
2022/02/12 03:35:12;;;;;;;1.90;1.40;;;;;;;0.51;100.00;99570.30;1685547;85;20927;-70
2022/02/12 03:37:43;;;;;;;2.40;1.15;;;;;;;0.40;100.00;99569.86;1685649;85;20979;-73
2022/02/12 03:40:12;;;;;;;2.30;1.35;;;;;;;0.32;100.00;99574.67;1685385;85;21073;-72
2022/02/12 03:42:40;;;;;;;1.77;1.25;;;;;;;0.19;100.00;99579.06;1685443;85;20986;-71
2022/02/12 03:45:09;;;;;;;1.32;1.10;;;;;;;0.17;100.00;99583.38;1687261;84;21039;-73
2022/02/12 03:47:41;;;;;;;2.85;0.90;;;;;;;0.17;100.00;99598.29;1694036;84;20968;-71
2022/02/12 03:50:11;;;;;;;2.50;1.15;;;;;;;0.19;100.00;99605.64;1669100;84;21541;-66
2022/02/12 03:52:40;;;;;;;1.95;1.15;;;;;;;0.16;100.00;99604.79;1693933;84;21031;-73
2022/02/12 03:55:11;;;;;;;1.75;1.20;;;;;;;0.17;100.00;99615.91;1694000;84;20944;-73
2022/02/12 03:57:41;;;;;;;3.05;1.17;;;;;;;0.15;100.00;99626.20;1693992;84;21003;-72
2022/02/12 04:00:12;;;;;;;2.25;1.22;;;;;;;-0.10;100.00;99636.91;1694375;84;20952;-71
2022/02/12 04:02:41;;;;;;;2.00;1.20;;;;;;;0.08;100.00;99649.41;1694004;84;21573;-73
2022/02/12 04:05:10;;;;;;;2.85;1.10;;;;;;;0.11;100.00;99657.56;1693233;84;21530;-71
2022/02/12 04:07:38;;;;;;;3.25;1.30;;;;;;;0.27;100.00;99667.29;1693988;84;21065;-74
2022/02/12 04:10:06;;;;;;;2.10;1.30;;;;;;;0.22;100.00;99675.62;1694115;84;20987;-74
2022/02/12 04:12:36;;;;;;;4.45;1.27;;;;;;;0.19;100.00;99682.89;1694113;84;20999;-73
2022/02/12 04:15:07;;;;;;;2.85;1.30;;;;;;;5.59;100.00;99675.45;1693933;84;20965;-71
2022/02/12 04:17:35;;;;;;;3.72;1.70;;;;;;;13.35;100.00;99689.45;1693888;84;21012;-72
2022/02/12 04:20:08;;;;;;;2.30;1.50;;;;;;;4.36;100.00;99698.26;1693902;84;21016;-73
2022/02/12 04:22:38;;;;;;;1.65;1.42;;;;;;;3.82;100.00;99696.30;1694118;84;21003;-74
2022/02/12 04:25:10;;;;;;;3.30;1.50;;;;;;;5.90;100.00;99706.42;1693977;84;21462;-73
2022/02/12 04:27:39;;;;;;;2.75;1.90;;;;;;;3.96;100.00;99712.96;1668994;84;21175;-73
2022/02/12 04:30:10;;;;;;;3.65;2.25;;;;;;;3.47;100.00;99716.41;1693950;83;20948;-70
2022/02/12 04:32:40;;;;;;;4.05;2.40;;;;;;;4.07;100.00;99725.25;1694025;84;21000;-72
2022/02/12 04:35:13;;;;;;;5.45;1.75;;;;;;;4.42;100.00;99739.19;1694104;84;21167;-74
2022/02/12 04:37:40;;;;;;;4.70;2.45;;;;;;;4.55;100.00;99738.62;1694436;84;21020;-68
2022/02/12 04:40:11;;;;;;;2.17;1.42;;;;;;;1.42;100.00;99739.64;1693922;84;21555;-72
2022/02/12 04:42:41;;;;;;;4.42;1.70;;;;;;;0.90;100.00;99752.57;1694012;84;20916;-73
2022/02/12 04:45:09;;;;;;;4.72;2.45;;;;;;;0.66;100.00;99764.97;1694139;83;20893;-70
2022/02/12 04:47:39;;;;;;;4.97;2.00;;;;;;;0.65;100.00;99768.73;1693832;84;20888;-74
2022/02/12 04:50:08;;;;;;;5.30;1.80;;;;;;;0.57;100.00;99775.94;1694115;84;20932;-67
2022/02/12 04:52:36;;;;;;;2.00;1.37;;;;;;;0.48;100.00;99779.06;1693940;84;21161;-72
2022/02/12 04:55:07;;;;;;;4.85;1.75;;;;;;;0.47;100.00;99777.95;1693927;84;20953;-73
2022/02/12 04:57:39;;;;;;;2.33;1.42;;;;;;;0.46;100.00;99792.03;1693912;84;20940;-71
2022/02/12 05:00:10;;;;;;;4.00;1.80;;;;;;;0.30;100.00;99796.92;1693960;84;20936;-73
2022/02/12 05:02:40;;;;;;;4.10;2.22;;;;;;;0.28;100.00;99805.30;1693939;84;21123;-73
2022/02/12 05:05:08;;;;;;;5.58;2.55;;;;;;;0.18;100.00;99808.66;1694009;84;21168;-71
2022/02/12 05:07:36;;;;;;;7.22;3.50;;;;;;;0.18;100.00;99823.56;1668207;84;21448;-74
2022/02/12 05:10:06;;;;;;;9.33;4.15;;;;;;;0.17;100.00;99823.25;1693864;84;21520;-73
2022/02/12 05:12:32;;;;;;;5.55;3.00;;;;;;;0.15;100.00;99830.83;1694168;83;21157;-73
2022/02/12 05:15:01;;;;;;;7.47;3.80;;;;;;;0.11;100.00;99829.66;1693952;84;21063;-72
2022/02/12 05:17:27;;;;;;;7.47;3.85;;;;;;;0.11;100.00;99843.20;1693828;84;21695;-73
2022/02/12 05:19:55;;;;;;;6.65;3.30;;;;;;;0.11;100.00;99845.92;1694177;84;21382;-73
2022/02/12 05:22:22;;;;;;;5.22;2.52;;;;;;;0.10;100.00;99849.16;1694060;84;21020;-74
2022/02/12 05:24:48;;;;;;;6.25;3.10;;;;;;;0.07;100.00;99849.64;1693986;84;20992;-70
2022/02/12 05:27:18;;;;;;;4.22;2.70;;;;;;;0.06;100.00;99856.66;1694125;84;21409;-74
2022/02/12 05:29:45;;;;;;;5.33;3.40;;;;;;;0.04;100.00;99858.27;1693955;83;21170;-73
2022/02/12 05:32:13;;;;;;;6.92;3.67;;;;;;;0.07;100.00;99866.45;1693927;84;21000;-74
2022/02/12 05:34:42;;;;;;;6.45;3.80;;;;;;;0.07;100.00;99871.87;1668239;84;21007;-72
2022/02/12 05:37:08;;;;;;;5.90;3.20;;;;;;;0.06;100.00;99872.92;1694204;84;20920;-72
2022/02/12 05:39:36;;;;;;;7.17;3.40;;;;;;;0.09;100.00;99881.92;1694034;84;20933;-72
2022/02/12 05:42:05;;;;;;;4.55;3.10;;;;;;;0.10;100.00;99895.78;1694317;84;21484;-72
2022/02/12 05:44:32;;;;;;;4.33;2.47;;;;;;;0.10;100.00;99902.55;1693905;84;21004;-73
2022/02/12 05:47:02;;;;;;;6.17;2.25;;;;;;;0.11;100.00;99905.55;1702181;84;20979;-72
2022/02/12 05:49:30;;;;;;;5.15;2.58;;;;;;;0.07;100.00;99918.75;1705026;84;20971;-73
2022/02/12 05:51:58;;;;;;;4.95;3.20;;;;;;;0.07;100.00;99916.05;1705081;84;21011;-72
2022/02/12 05:54:27;;;;;;;4.15;2.85;;;;;;;0.03;100.00;99923.02;1705133;84;21059;-73
2022/02/12 05:56:58;;;;;;;4.40;3.25;;;;;;;0.05;100.00;99924.94;1705217;84;21019;-73
2022/02/12 05:59:28;;;;;;;5.05;3.55;;;;;;;0.09;100.00;99936.12;1705094;84;21012;-69
2022/02/12 06:01:57;;;;;;;6.90;4.95;;;;;;;0.06;100.00;99946.09;1705064;83;20975;-73
2022/02/12 06:04:24;;;;;;;7.65;4.58;;;;;;;0.11;100.00;99943.48;1682611;84;20956;-73
2022/02/12 06:06:55;;;;;;;6.65;3.87;;;;;;;0.15;100.00;99946.03;1705114;83;21779;-73
2022/02/12 06:09:23;;;;;;;3.90;3.17;;;;;;;0.18;100.00;99954.20;1705081;84;21023;-71
2022/02/12 06:11:51;;;;;;;5.72;4.03;;;;;;;0.15;100.00;99960.10;1682856;84;21555;-72
2022/02/12 06:14:21;;;;;;;5.65;3.02;;;;;;;0.16;100.00;99957.67;1704841;83;21023;-72
2022/02/12 06:16:47;;;;;;;9.98;3.72;;;;;;;0.22;100.00;99962.95;1705488;84;21003;-72
2022/02/12 06:19:21;;;;;;;5.90;2.55;;;;;;;0.25;100.00;99972.52;1705142;82;21811;-71
2022/02/12 06:21:55;;;;;;;4.10;2.50;;;;;;;0.22;100.00;99976.52;1704953;83;21030;-72
2022/02/12 06:24:21;;;;;;;7.62;3.92;;;;;;;0.23;100.00;99978.17;1683401;84;21082;-72
2022/02/12 06:26:53;;;;;;;5.50;3.20;;;;;;;0.19;100.00;99982.94;1705442;84;20976;-73
2022/02/12 06:29:20;;;;;;;5.25;3.62;;;;;;;0.20;100.00;99990.02;1704408;82;21150;-73
2022/02/12 06:31:51;;;;;;;6.28;4.47;;;;;;;0.25;100.00;99994.20;1705281;84;21582;-70
2022/02/12 06:34:21;;;;;;;5.30;3.22;;;;;;;0.34;100.00;100000.08;1704940;84;21543;-73
2022/02/12 06:36:50;;;;;;;3.52;2.45;;;;;;;0.36;100.00;99998.77;1705103;84;21485;-74
2022/02/12 06:39:17;;;;;;;4.35;2.42;;;;;;;0.38;100.00;100005.82;1683350;84;20967;-74
2022/02/12 06:41:48;;;;;;;3.00;2.10;;;;;;;0.41;100.00;100008.88;1705089;84;21027;-74
2022/02/12 06:44:17;;;;;;;4.50;2.40;;;;;;;0.43;100.00;100014.06;1705102;84;49570;-73
2022/02/12 06:46:44;;;;;;;4.55;2.30;;;;;;;0.47;100.00;100020.14;1699556;84;21523;-74
2022/02/12 06:49:15;;;;;;;6.72;2.77;;;;;;;0.53;100.00;100019.69;1693927;84;21031;-73
2022/02/12 06:51:46;;;;;;;3.40;2.40;;;;;;;0.52;100.00;100026.72;1693894;84;20959;-74
2022/02/12 06:54:14;;;;;;;4.20;2.05;;;;;;;0.55;100.00;100033.84;1694050;84;20979;-73
2022/02/12 06:56:45;;;;;;;5.75;3.33;;;;;;;0.58;100.00;100041.50;1693844;84;21093;-74
2022/02/12 06:59:16;;;;;;;5.30;2.10;;;;;;;0.60;100.00;100047.52;1693869;84;20983;-72
2022/02/12 07:01:44;;;;;;;3.72;2.50;;;;;;;0.65;100.00;100048.14;1694199;84;21520;-75
2022/02/12 07:04:10;;;;;;;4.62;2.27;;;;;;;0.59;100.00;100056.72;1694140;84;21595;-73
2022/02/12 07:06:38;;;;;;;3.92;2.67;;;;;;;0.60;100.00;100068.38;1694052;84;20948;-74
2022/02/12 07:09:04;;;;;;;5.72;2.42;;;;;;;0.65;100.00;100063.06;1668153;84;21549;-71
2022/02/12 07:11:34;;;;;;;3.85;2.20;;;;;;;0.65;100.00;100073.91;1694149;84;20979;-73
2022/02/12 07:14:01;;;;;;;2.98;2.58;;;;;;;0.60;100.00;100076.52;1694153;84;21599;-73
2022/02/12 07:16:30;;;;;;;4.17;2.77;;;;;;;0.58;100.00;100088.16;1693911;84;21556;-74
2022/02/12 07:18:57;;;;;;;4.80;3.40;;;;;;;0.55;100.00;100094.04;1694140;84;20904;-74
2022/02/12 07:21:25;;;;;;;5.15;3.05;;;;;;;0.54;100.00;100089.69;1694177;84;20927;-73
2022/02/12 07:23:52;;;;;;;4.03;2.70;;;;;;;0.54;100.00;100101.89;1693934;84;21007;-69
2022/02/12 07:26:18;;;;;;;4.30;2.67;;;;;;;0.52;100.00;100110.80;1694248;84;21504;-74
2022/02/12 07:28:44;;;;;;;4.30;2.40;;;;;;;0.52;100.00;100120.28;1694151;84;21016;-74
2022/02/12 07:31:16;;;;;;;7.35;2.60;;;;;;;0.52;100.00;100124.35;1694051;83;21075;-74
2022/02/12 07:33:43;;;;;;;4.80;2.87;;;;;;;0.48;100.00;100127.55;1694318;84;21159;-70
2022/02/12 07:36:11;;;;;;;4.15;2.37;;;;;;;0.50;100.00;100131.89;1694597;84;21036;-73
2022/02/12 07:38:40;;;;;;;4.47;2.80;;;;;;;0.46;100.00;100139.16;1694211;84;21241;-73
2022/02/12 07:41:06;;;;;;;7.90;3.75;;;;;;;0.44;100.00;100130.98;1694548;84;21433;-74
2022/02/12 07:43:37;;;;;;;5.75;3.90;;;;;;;0.43;100.00;100140.16;1694070;84;20943;-75
2022/02/12 07:46:05;;;;;;;8.98;4.35;;;;;;;0.43;100.00;100143.70;1694423;84;21162;-72
2022/02/12 07:48:34;;;;;;;13.95;6.03;;;;;;;0.47;100.00;100151.67;1668649;84;21031;-74
2022/02/12 07:51:04;;;;;;;8.15;4.58;;;;;;;0.52;100.00;100157.73;1694116;84;21055;-72
2022/02/12 07:53:32;;;;;;;9.70;6.00;;;;;;;0.59;100.00;100153.54;1694240;84;21012;-73
2022/02/12 07:55:59;;;;;;;7.58;4.62;;;;;;;0.63;100.00;100157.44;1694320;84;21460;-75
2022/02/12 07:58:25;;;;;;;6.67;4.12;;;;;;;0.68;100.00;100157.52;1694007;84;21161;-74
2022/02/12 08:00:53;;;;;;;7.40;4.40;;;;;;;0.67;100.00;100168.61;1694049;84;20992;-71
2022/02/12 08:03:23;;;;;;;8.43;4.10;;;;;;;0.65;100.00;100171.57;1694604;84;20970;-74
2022/02/12 08:05:50;;;;;;;7.87;4.78;;;;;;;0.68;100.00;100177.06;1694006;84;21078;-73
2022/02/12 08:08:18;;;;;;;9.13;4.53;;;;;;;0.64;100.00;100180.78;1693988;84;20963;-74
2022/02/12 08:13:33;;;;;;;8.08;4.58;;;;;;;0.67;100.00;100182.18;1693963;84;21016;-68
2022/02/12 08:15:59;;;;;;;9.23;4.65;;;;;;;0.68;100.00;100190.08;1694136;84;20972;-70
2022/02/12 08:18:26;;;;;;;8.55;4.28;;;;;;;0.76;100.00;100196.22;1694573;84;20900;-74
2022/02/12 08:20:56;;;;;;;6.00;4.22;;;;;;;0.80;100.00;100199.56;1694255;84;21078;-74
2022/02/12 08:23:25;;;;;;;10.43;4.78;;;;;;;0.78;100.00;100207.66;1694558;84;22144;-74
2022/02/12 08:25:57;;;;;;;7.22;4.30;;;;;;;0.78;100.00;100209.02;1694223;84;21024;-75
2022/02/12 08:28:23;;;;;;;6.30;4.00;;;;;;;0.77;100.00;100217.68;1694397;84;21592;-74
2022/02/12 08:30:49;;;;;;;10.75;3.85;;;;;;;0.75;100.00;100213.02;1694094;83;20936;-74
2022/02/12 08:33:19;;;;;;;6.42;4.33;;;;;;;0.73;100.00;100218.69;1694619;84;21453;-74
2022/02/12 08:35:48;;;;;;;7.33;4.62;;;;;;;0.74;100.00;100218.16;1694139;84;20936;-71
2022/02/12 08:38:17;;;;;;;10.95;4.15;;;;;;;0.80;100.00;100223.18;1694363;84;20984;-73
2022/02/12 08:40:43;;;;;;;12.85;5.05;;;;;;;0.76;100.00;100235.55;1694072;84;20912;-68
2022/02/12 08:43:13;;;;;;;6.20;4.05;;;;;;;0.75;100.00;100247.48;1694231;84;21083;-75
2022/02/12 08:45:40;;;;;;;11.75;3.98;;;;;;;0.73;100.00;100236.31;1694172;84;21032;-75
2022/02/12 08:48:09;;;;;;;9.15;3.90;;;;;;;0.71;100.00;100246.61;1694177;84;21283;-74
2022/02/12 08:50:40;;;;;;;8.48;3.92;;;;;;;0.67;100.00;100258.98;1694005;84;21057;-76
2022/02/12 08:53:08;;;;;;;11.80;4.00;;;;;;;0.62;100.00;100268.88;1694495;84;21421;-75
2022/02/12 08:55:36;;;;;;;9.40;4.10;;;;;;;0.59;100.00;100276.44;1693988;84;20988;-74
2022/02/12 08:58:08;;;;;;;8.90;5.15;;;;;;;0.58;100.00;100272.06;1669065;84;20940;-76
2022/02/12 09:00:34;;;;;;;12.73;4.87;;;;;;;0.64;100.00;100281.16;1694098;84;21551;-76
2022/02/12 09:03:01;;;;;;;9.05;4.33;;;;;;;0.72;100.00;100286.75;1694222;84;21456;-75
2022/02/12 09:05:52;;;;;;;10.70;5.60;;;;;;;0.78;100.00;100284.99;1723234;83;20957;-75
2022/02/12 09:08:22;;;;;;;10.45;4.58;;;;;;;0.81;100.00;100288.59;1723042;83;20936;-75
2022/02/12 09:10:53;;;;;;;8.93;4.62;;;;;;;0.84;100.00;100293.53;1723142;83;21465;-74
2022/02/12 09:13:27;;;;;;;13.83;3.83;;;;;;;0.90;100.00;100303.98;1722954;83;21848;-75
2022/02/12 09:15:59;;;;;;;11.10;5.30;;;;;;;0.96;100.00;100305.23;1722945;83;20988;-75
2022/02/12 09:18:30;;;;;;;10.00;4.20;;;;;;;1.03;100.00;100313.77;1723445;83;20976;-73
2022/02/12 09:20:58;;;;;;;13.80;3.87;;;;;;;1.02;100.00;100318.40;1723067;83;20988;-73
2022/02/12 09:23:30;;;;;;;11.85;5.10;;;;;;;0.99;100.00;100316.68;1723069;83;20897;-76
2022/02/12 09:26:04;;;;;;;12.85;4.12;;;;;;;1.01;100.00;100318.64;1723259;83;21091;-75
2022/02/12 09:28:31;;;;;;;9.83;4.90;;;;;;;1.06;100.00;100320.08;1723183;83;21489;-76
2022/02/12 09:31:00;;;;;;;10.38;3.90;;;;;;;1.19;100.00;100325.81;1723020;83;21485;-75
2022/02/12 09:33:28;;;;;;;12.07;4.10;;;;;;;1.31;100.00;100333.95;1723144;83;20984;-75
2022/02/12 09:35:56;;;;;;;10.68;3.62;;;;;;;1.32;100.00;100338.31;1723109;83;21474;-75
2022/02/12 09:38:26;;;;;;;8.93;4.67;;;;;;;1.37;100.00;100345.21;1723109;83;20968;-73
2022/02/12 09:40:54;;;;;;;14.23;4.65;;;;;;;1.42;100.00;100348.05;1723152;83;20920;-73
2022/02/12 09:43:25;;;;;;;8.18;4.30;;;;;;;1.41;100.00;100347.77;1722979;83;21429;-74
2022/02/12 09:46:22;;;;;;;12.90;4.72;;;;;;;1.44;100.00;100350.52;1722959;83;20940;-73
2022/02/12 09:48:54;;;;;;;14.98;4.75;;;;;;;1.47;100.00;100354.66;1722459;83;20972;-74
2022/02/12 09:51:24;;;;;;;13.45;5.17;;;;;;;1.48;100.00;100350.87;1722979;83;21497;-73
2022/02/12 09:53:51;;;;;;;19.10;4.30;;;;;;;1.48;100.00;100363.09;1696545;83;21035;-75
2022/02/12 09:56:21;;;;;;;13.05;4.97;;;;;;;1.55;100.00;100366.52;1696538;83;21055;-72
2022/02/12 09:58:51;;;;;;;10.10;4.95;;;;;;;1.62;100.00;100369.91;1723147;83;21012;-74
2022/02/12 10:01:19;;;;;;;7.15;4.20;;;;;;;1.69;100.00;100369.25;1723064;83;21008;-75
2022/02/12 10:03:49;;;;;;;6.25;4.03;;;;;;;1.78;100.00;100362.91;1723037;83;21944;-75
2022/02/12 10:06:41;;;;;;;9.48;4.40;;;;;;;1.83;100.00;100370.34;1723016;83;21015;-73
2022/02/12 10:09:09;;;;;;;9.85;4.25;;;;;;;1.85;100.00;100377.73;1722925;83;21016;-75
2022/02/12 10:11:48;;;;;;;8.98;4.40;;;;;;;1.83;100.00;100381.22;1722882;83;20944;-76
2022/02/12 10:14:20;;;;;;;12.60;3.75;;;;;;;1.77;100.00;100387.62;1723356;83;21009;-74
2022/02/12 10:17:02;;;;;;;9.53;4.30;;;;;;;1.66;100.00;100390.64;1723252;83;22116;-73
2022/02/12 10:19:36;;;;;;;10.78;4.08;;;;;;;1.63;100.00;100391.12;1723239;83;21618;-76
2022/02/12 10:22:17;;;;;;;11.95;4.12;;;;;;;1.62;100.00;100405.23;1722930;83;21003;-76
2022/02/12 10:25:04;;;;;;;10.80;3.87;;;;;;;1.57;100.00;100405.12;1722913;83;21521;-76
2022/02/12 10:27:30;;;;;;;8.73;3.55;;;;;;;1.56;100.00;100408.39;1723135;83;20964;-76
2022/02/12 10:30:03;;;;;;;10.72;3.08;;;;;;;1.64;100.00;100420.77;1723065;83;21864;-76
2022/02/12 10:32:32;;;;;;;11.78;4.47;;;;;;;1.67;100.00;100428.44;1698033;83;20923;-76
2022/02/12 10:34:58;;;;;;;14.15;3.77;;;;;;;1.53;100.00;100439.28;1723164;83;21044;-75
2022/02/12 10:37:26;;;;;;;14.98;3.95;;;;;;;1.47;100.00;100437.52;1722893;83;21455;-77
2022/02/12 10:39:58;;;;;;;8.15;3.67;;;;;;;1.43;100.00;100437.16;1723061;83;20944;-76
2022/02/12 10:42:30;;;;;;;8.88;3.40;;;;;;;1.46;100.00;100436.68;1722386;83;21485;-75
2022/02/12 10:45:00;;;;;;;;;;;;;;;1.43;100.00;100437.96;1725681;82;21008;-75
2022/02/12 10:47:27;;;;;;;12.05;4.22;;;;;;;1.40;100.00;100445.78;1722817;83;20116;-75
2022/02/12 10:49:59;;;;;;;4.97;2.42;;;;;;;1.43;100.00;100452.91;1722945;83;20908;-74
2022/02/12 10:52:46;;;;;;;11.50;3.93;;;;;;;1.47;100.00;100447.02;1723159;83;21043;-69
2022/02/12 10:55:34;;;;;;;9.30;3.40;;;;;;;1.50;100.00;100452.78;1723091;83;21073;-76
2022/02/12 10:58:06;;;;;;;8.63;3.27;;;;;;;1.49;100.00;100448.95;1723007;83;20888;-75
2022/02/12 11:00:36;;;;;;;9.55;3.10;;;;;;;1.56;100.00;100461.37;1722962;83;20896;-75
2022/02/12 11:03:09;;;;;;;9.23;3.47;;;;;;;1.63;100.00;100459.89;1723070;83;20897;-74
2022/02/12 11:05:35;;;;;;;8.68;2.80;;;;;;;1.70;100.00;100461.13;1723018;83;20984;-75
2022/02/12 11:08:07;;;;;;;7.60;3.60;;;;;;;1.80;100.00;100465.95;1723211;83;21928;-74
2022/02/12 11:10:38;;;;;;;8.45;3.80;;;;;;;1.88;100.00;100466.95;1723103;83;20885;-75
2022/02/12 11:13:07;;;;;;;8.65;3.83;;;;;;;2.03;100.00;100478.67;1722877;83;21470;-75
2022/02/12 11:15:34;;;;;;;9.43;4.00;;;;;;;2.07;100.00;100476.31;1723181;83;20897;-72
2022/02/12 11:18:10;;;;;;;10.93;3.35;;;;;;;2.18;100.00;100480.08;1722951;83;20987;-75
2022/02/12 11:20:34;;;;;;;10.80;3.37;;;;;;;2.17;100.00;100477.05;1721432;83;21853;-74
2022/02/12 11:23:24;;;;;;;7.60;2.72;;;;;;;2.13;100.00;100474.53;1722900;83;20979;-76
2022/02/12 11:25:54;;;;;;;5.83;3.42;;;;;;;2.09;100.00;100485.59;1723233;83;21533;-76
2022/02/12 11:28:32;;;;;;;8.53;3.33;;;;;;;1.99;100.00;100486.20;1723093;83;21093;-76
2022/02/12 11:31:31;;;;;;;12.35;3.33;;;;;;;1.93;100.00;100488.80;1722642;83;21009;-75
2022/02/12 11:34:12;;;;;;;12.80;3.30;;;;;;;1.89;100.00;100493.08;1721818;82;21161;-75
2022/02/12 11:36:40;;;;;;;9.90;3.62;;;;;;;1.80;100.00;100496.69;1723194;83;20983;-75
2022/02/12 11:39:15;;;;;;;10.88;3.45;;;;;;;1.69;100.00;100509.20;1722841;83;21119;-76
2022/02/12 11:41:45;;;;;;;7.22;2.77;;;;;;;1.64;100.00;100512.35;1723186;83;20944;-76
2022/02/12 11:44:34;;;;;;;7.58;3.75;;;;;;;1.53;100.00;100508.03;1723177;83;20932;-71
2022/02/12 11:47:05;;;;;;;9.73;3.70;;;;;;;1.58;100.00;100517.66;1701604;83;21077;-76